Dolliver, IA (50531)

2:25 PM CDT on July 24, 2016 (GMT -0500)
Estherville Municipal | | Change Station

Elev 1316 ft 43.40 °N, 94.75 °W | Updated 33 minutes ago

Scattered Clouds
Scattered Clouds
76 °F
Feels Like 76 °F
N
6
Wind Variable Wind from NNW

Today
High -- | Low -- °F
--% Chance of Precip.
Yesterday
High -- | Low -- °F
Precip. -- in
Pressure 29.95 in
Visibility 10.0 miles
Clouds Scattered Clouds 11000 ft
Dew Point 62 °F
Humidity 62%
Rainfall 0.00 in
Snow Depth Not available.
6:00 AM 8:49 PM
Waning Gibbous, 74% visible
METAR KEST 241852Z AUTO 34005KT 10SM SCT110 24/17 A2997 RMK AO2 PRESFR SLP141 T02440167 TSNO
Pressure 29.95 in
Visibility 10.0 miles
Clouds Scattered Clouds 11000 ft
Dew Point 62 °F
Humidity 62%
Rainfall 0.00 in
Snow Depth Not available.
6:00 AM 8:49 PM
Waning Gibbous, 74% visible
METAR KEST 241852Z AUTO 34005KT 10SM SCT110 24/17 A2997 RMK AO2 PRESFR SLP141 T02440167 TSNO

10-Day Weather Forecast

Almanac

Astronomy

Jul. 24, 2016 Rise Set
Actual Time
Civil Twilight
Nautical Twilight
Astronomical Twilight
Moon
Length of Visible Light
Length of Day
Tomorrow will be .
, % of the Moon is Illuminated

Today's Extremes

State Highs State Lows

Community

WunderPhotos

Upload Photos

1,927,172 photos uploaded!

WunderBlog® & News

Nearby

Air Quality

  Air Quality AQ Index Pollutant
Not available.

Snow Depth

Station Depth Elevation

Earthquake Activity

City Distance Mag. Time & Date
Minimum magnitude displayed is 2.5.

Coastal Water Temperatures

Place Temperature

Stations

Nearby Weather Stations

Station Location Temp. Windchill Dew Point Humidity Wind Precip. Elev Updated Type
                   

Watches & Warnings

There are currently no watches in effect.